Terminal Aerodrome Forecast
Issued by NWS Cleveland, OH

Home | Current Version | Previous Version | Graphics & Text | Print | Product List | Glossary On
Versions: 1 2 3 4 5 6 7 8 9 10 11 12 13 14
000
FTUS41 KCLE 181700
TAFTOL
TAF
KTOL 181740Z 1818/1918 34012KT P6SM BKN025 OVC035
      TEMPO 1818/1820 SCT025 OVC035
     FM190200 32008KT P6SM SCT020
     FM191200 28006KT P6SM SCT025=

USA.gov is the U.S. government's official web portal to all federal, state and local government web resources and services.